BLOG

LUXURY FLIGHT

080-7560-1817

羽田空港本店:東京都大田区羽田空港3-3-2
第一旅客ターミナル5階
営業時間:10:00~20:00
定休日:年中無休

セントレア店:愛知県常滑市セントレア1-1
FLIGHT OF DREAMS FLIGHT PARK
営業時間:10:00~20:00
定休日:年中無休

lv

BLOG

BLOG

2019/05/29 新キャラ参入ーーーー!!!!

おっはようございますーーーー   本日の羽田 RJTT 290100Z 03007KT 9999 F…

2019/05/27 オリジナルポロシャツ

こにゃにゃちわ   セントレア店でーーす   RJGG 270630Z 14014KT 9…

2019/05/26 はしご酒。。あっ!ちゃうハシゴシム

おはざっスーーーーーー   本日も最高の初夏の感じ!!   空気の匂いが夏でございます &…

2019/05/25 羽田店はさらに女性パイロット増えてます!!

おはざっスーーーー   RJTT 250000Z 08004KT CAVOK 24/14 Q1016…

2019/05/24 F/O訓練生だらけ〜

こんにちは〜   本日の羽田・・・ RJTT 240530Z 19014KT 9999 FEW035…

2019/05/23 最近セントレア店でも増えてきた女性SIM PILOT

おっはようございます!!   本日私は羽田へ出張しております   来るときはJALさんで帰…

2019/05/22 ご家族で!

こんにちはーーーーー   羽田は昨日の雨から一転、   眩しい日差しと暑さにやられそうです…

2019/05/21 太陽!

こんにちは〜〜   現在、羽田は・・・・・   RJTT 210517Z 19022KT …

2019/05/20 マルチなキャプテン!

おはようございますーーーーーーーー   本日の羽田は   穏やかな風とともに心地良い陽気で…

2019/05/19 ひたすらRJTT-RJGG

おはようございます   本日のセントレアは、少々曇り空!!   日課とりました本日現在のM…

TOP